sensor_id;sensor_type;location;lat;lon;timestamp;temperature;humidity
21439;DHT22;10880;50.302;18.736;2023-11-21T00:04:54;12.70;76.50
21439;DHT22;10880;50.302;18.736;2023-11-21T00:07:23;12.70;76.50
21439;DHT22;10880;50.302;18.736;2023-11-21T00:09:49;12.70;76.50
21439;DHT22;10880;50.302;18.736;2023-11-21T00:19:39;12.70;76.50
21439;DHT22;10880;50.302;18.736;2023-11-21T00:22:05;12.70;76.50
21439;DHT22;10880;50.302;18.736;2023-11-21T00:24:33;12.80;76.50
21439;DHT22;10880;50.302;18.736;2023-11-21T00:26:59;12.80;77.20
21439;DHT22;10880;50.302;18.736;2023-11-21T00:29:26;12.80;76.50
21439;DHT22;10880;50.302;18.736;2023-11-21T00:34:19;12.80;76.60
21439;DHT22;10880;50.302;18.736;2023-11-21T00:36:47;12.80;76.70
21439;DHT22;10880;50.302;18.736;2023-11-21T00:39:18;12.80;77.20
21439;DHT22;10880;50.302;18.736;2023-11-21T00:41:44;12.80;76.70
21439;DHT22;10880;50.302;18.736;2023-11-21T00:44:11;12.80;77.20
21439;DHT22;10880;50.302;18.736;2023-11-21T00:49:04;12.80;76.70
21439;DHT22;10880;50.302;18.736;2023-11-21T00:54:00;12.80;76.60
21439;DHT22;10880;50.302;18.736;2023-11-21T00:58:54;12.80;76.70
21439;DHT22;10880;50.302;18.736;2023-11-21T01:01:21;12.80;76.60
21439;DHT22;10880;50.302;18.736;2023-11-21T01:06:19;12.80;76.60
21439;DHT22;10880;50.302;18.736;2023-11-21T01:08:48;12.80;76.70
21439;DHT22;10880;50.302;18.736;2023-11-21T01:11:15;12.80;76.50
21439;DHT22;10880;50.302;18.736;2023-11-21T01:13:43;12.70;76.40
21439;DHT22;10880;50.302;18.736;2023-11-21T01:18:38;12.80;76.50
21439;DHT22;10880;50.302;18.736;2023-11-21T01:21:06;12.70;77.10
21439;DHT22;10880;50.302;18.736;2023-11-21T01:23:33;12.70;77.00
21439;DHT22;10880;50.302;18.736;2023-11-21T01:26:00;12.70;76.40
21439;DHT22;10880;50.302;18.736;2023-11-21T01:28:26;12.70;76.40
21439;DHT22;10880;50.302;18.736;2023-11-21T01:33:22;12.70;76.40
21439;DHT22;10880;50.302;18.736;2023-11-21T01:35:51;12.70;76.40
21439;DHT22;10880;50.302;18.736;2023-11-21T01:38:21;12.70;77.00
21439;DHT22;10880;50.302;18.736;2023-11-21T01:43:15;12.70;76.40
21439;DHT22;10880;50.302;18.736;2023-11-21T01:45:41;12.60;76.30
21439;DHT22;10880;50.302;18.736;2023-11-21T01:48:08;12.60;76.90
21439;DHT22;10880;50.302;18.736;2023-11-21T01:50:35;12.60;77.10
21439;DHT22;10880;50.302;18.736;2023-11-21T01:55:29;12.60;76.30
21439;DHT22;10880;50.302;18.736;2023-11-21T02:00:23;12.60;76.30
21439;DHT22;10880;50.302;18.736;2023-11-21T02:05:18;12.60;76.20
21439;DHT22;10880;50.302;18.736;2023-11-21T02:12:43;12.60;76.30
21439;DHT22;10880;50.302;18.736;2023-11-21T02:15:11;12.50;76.10
21439;DHT22;10880;50.302;18.736;2023-11-21T02:25:33;12.50;76.10
21439;DHT22;10880;50.302;18.736;2023-11-21T02:28:02;12.50;76.10
21439;DHT22;10880;50.302;18.736;2023-11-21T02:35:27;12.50;76.10
21439;DHT22;10880;50.302;18.736;2023-11-21T02:40:22;12.50;76.10
21439;DHT22;10880;50.302;18.736;2023-11-21T02:42:52;12.50;76.80
21439;DHT22;10880;50.302;18.736;2023-11-21T02:45:22;12.50;76.80
21439;DHT22;10880;50.302;18.736;2023-11-21T02:47:51;12.50;76.80
21439;DHT22;10880;50.302;18.736;2023-11-21T02:50:19;12.50;76.10
21439;DHT22;10880;50.302;18.736;2023-11-21T02:52:46;12.50;76.10
21439;DHT22;10880;50.302;18.736;2023-11-21T02:55:14;12.50;76.10
21439;DHT22;10880;50.302;18.736;2023-11-21T03:00:09;12.40;76.00
21439;DHT22;10880;50.302;18.736;2023-11-21T03:02:36;12.50;76.70
21439;DHT22;10880;50.302;18.736;2023-11-21T03:05:06;12.40;76.70
21439;DHT22;10880;50.302;18.736;2023-11-21T03:07:32;12.40;76.00
21439;DHT22;10880;50.302;18.736;2023-11-21T03:09:59;12.40;76.70
21439;DHT22;10880;50.302;18.736;2023-11-21T03:12:25;12.40;76.00
21439;DHT22;10880;50.302;18.736;2023-11-21T03:17:21;12.40;76.10
21439;DHT22;10880;50.302;18.736;2023-11-21T03:24:41;12.40;76.10
21439;DHT22;10880;50.302;18.736;2023-11-21T03:27:08;12.40;76.80
21439;DHT22;10880;50.302;18.736;2023-11-21T03:32:01;12.40;76.20
21439;DHT22;10880;50.302;18.736;2023-11-21T03:41:49;12.40;76.20
21439;DHT22;10880;50.302;18.736;2023-11-21T03:44:18;12.40;76.90
21439;DHT22;10880;50.302;18.736;2023-11-21T03:51:40;12.40;76.10
21439;DHT22;10880;50.302;18.736;2023-11-21T03:56:33;12.50;76.20
21439;DHT22;10880;50.302;18.736;2023-11-21T03:59:00;12.50;76.20
21439;DHT22;10880;50.302;18.736;2023-11-21T04:03:53;12.50;76.20
21439;DHT22;10880;50.302;18.736;2023-11-21T04:06:20;12.50;76.90
21439;DHT22;10880;50.302;18.736;2023-11-21T04:08:47;12.50;76.10
21439;DHT22;10880;50.302;18.736;2023-11-21T04:13:40;12.50;76.10
21439;DHT22;10880;50.302;18.736;2023-11-21T04:16:07;12.50;76.00
21439;DHT22;10880;50.302;18.736;2023-11-21T04:18:36;12.50;76.70
21439;DHT22;10880;50.302;18.736;2023-11-21T04:21:04;12.50;76.50
21439;DHT22;10880;50.302;18.736;2023-11-21T04:28:28;12.50;75.90
21439;DHT22;10880;50.302;18.736;2023-11-21T04:33:21;12.50;75.90
21439;DHT22;10880;50.302;18.736;2023-11-21T04:35:48;12.50;76.50
21439;DHT22;10880;50.302;18.736;2023-11-21T04:38:15;12.50;76.50
21439;DHT22;10880;50.302;18.736;2023-11-21T04:40:41;12.50;76.00
21439;DHT22;10880;50.302;18.736;2023-11-21T04:45:35;12.50;76.00
21439;DHT22;10880;50.302;18.736;2023-11-21T04:48:01;12.50;76.00
21439;DHT22;10880;50.302;18.736;2023-11-21T05:00:15;12.50;76.00
21439;DHT22;10880;50.302;18.736;2023-11-21T05:05:10;12.50;76.00
21439;DHT22;10880;50.302;18.736;2023-11-21T05:10:05;12.50;76.00
21439;DHT22;10880;50.302;18.736;2023-11-21T05:12:35;12.50;76.70
21439;DHT22;10880;50.302;18.736;2023-11-21T05:15:07;12.50;76.80
21439;DHT22;10880;50.302;18.736;2023-11-21T05:17:37;12.50;76.10
21439;DHT22;10880;50.302;18.736;2023-11-21T05:20:08;12.50;76.70
21439;DHT22;10880;50.302;18.736;2023-11-21T05:25:03;12.50;76.10
21439;DHT22;10880;50.302;18.736;2023-11-21T05:29:57;12.40;76.10
21439;DHT22;10880;50.302;18.736;2023-11-21T05:32:24;12.40;76.10
21439;DHT22;10880;50.302;18.736;2023-11-21T05:34:52;12.40;76.80
21439;DHT22;10880;50.302;18.736;2023-11-21T05:39:45;12.40;76.10
21439;DHT22;10880;50.302;18.736;2023-11-21T05:44:42;12.40;76.10
21439;DHT22;10880;50.302;18.736;2023-11-21T05:47:09;12.50;76.80
21439;DHT22;10880;50.302;18.736;2023-11-21T05:52:03;12.50;76.20
21439;DHT22;10880;50.302;18.736;2023-11-21T05:54:30;12.50;76.10
21439;DHT22;10880;50.302;18.736;2023-11-21T05:56:56;12.50;76.70
21439;DHT22;10880;50.302;18.736;2023-11-21T05:59:24;14.00;77.10
21439;DHT22;10880;50.302;18.736;2023-11-21T06:04:19;12.50;76.10
21439;DHT22;10880;50.302;18.736;2023-11-21T06:11:42;12.50;76.00
21439;DHT22;10880;50.302;18.736;2023-11-21T06:14:08;10.20;74.60
21439;DHT22;10880;50.302;18.736;2023-11-21T06:16:50;12.50;76.00
21439;DHT22;10880;50.302;18.736;2023-11-21T06:19:18;12.50;76.10
21439;DHT22;10880;50.302;18.736;2023-11-21T06:21:46;12.50;76.10
21439;DHT22;10880;50.302;18.736;2023-11-21T06:24:13;12.50;76.70
21439;DHT22;10880;50.302;18.736;2023-11-21T06:26:41;12.50;76.60
21439;DHT22;10880;50.302;18.736;2023-11-21T06:29:08;12.50;76.00
21439;DHT22;10880;50.302;18.736;2023-11-21T06:31:34;12.50;75.90
21439;DHT22;10880;50.302;18.736;2023-11-21T06:34:00;12.50;76.60
21439;DHT22;10880;50.302;18.736;2023-11-21T06:36:27;12.50;76.00
21439;DHT22;10880;50.302;18.736;2023-11-21T06:38:53;12.50;75.90
21439;DHT22;10880;50.302;18.736;2023-11-21T06:41:20;12.50;75.90
21439;DHT22;10880;50.302;18.736;2023-11-21T06:43:47;12.50;76.50
21439;DHT22;10880;50.302;18.736;2023-11-21T06:46:13;12.50;76.00
21439;DHT22;10880;50.302;18.736;2023-11-21T06:48:42;12.50;76.60
21439;DHT22;10880;50.302;18.736;2023-11-21T06:51:10;12.50;76.00
21439;DHT22;10880;50.302;18.736;2023-11-21T06:53:40;12.50;76.00
21439;DHT22;10880;50.302;18.736;2023-11-21T06:56:16;12.50;76.60
21439;DHT22;10880;50.302;18.736;2023-11-21T06:58:43;12.50;76.00
21439;DHT22;10880;50.302;18.736;2023-11-21T07:01:12;12.50;76.70
21439;DHT22;10880;50.302;18.736;2023-11-21T07:03:39;12.50;76.50
21439;DHT22;10880;50.302;18.736;2023-11-21T07:06:08;12.50;76.00
21439;DHT22;10880;50.302;18.736;2023-11-21T07:15:59;12.50;75.90
21439;DHT22;10880;50.302;18.736;2023-11-21T07:18:26;12.50;76.70
21439;DHT22;10880;50.302;18.736;2023-11-21T07:20:52;12.50;76.50
21439;DHT22;10880;50.302;18.736;2023-11-21T07:25:49;12.50;75.90
21439;DHT22;10880;50.302;18.736;2023-11-21T07:33:10;12.40;76.00
21439;DHT22;10880;50.302;18.736;2023-11-21T07:35:37;12.40;76.50
21439;DHT22;10880;50.302;18.736;2023-11-21T07:42:58;12.40;76.00
21439;DHT22;10880;50.302;18.736;2023-11-21T07:45:24;12.40;76.60
21439;DHT22;10880;50.302;18.736;2023-11-21T07:47:54;12.50;76.70
21439;DHT22;10880;50.302;18.736;2023-11-21T07:50:22;12.40;76.50
21439;DHT22;10880;50.302;18.736;2023-11-21T07:52:49;12.50;75.80
21439;DHT22;10880;50.302;18.736;2023-11-21T07:55:16;12.40;76.30
21439;DHT22;10880;50.302;18.736;2023-11-21T07:57:43;12.40;75.60
21439;DHT22;10880;50.302;18.736;2023-11-21T08:00:10;12.40;75.60
21439;DHT22;10880;50.302;18.736;2023-11-21T08:05:12;12.40;75.60
21439;DHT22;10880;50.302;18.736;2023-11-21T08:07:38;12.40;75.70
21439;DHT22;10880;50.302;18.736;2023-11-21T08:10:23;12.40;75.60
21439;DHT22;10880;50.302;18.736;2023-11-21T08:18:03;12.40;75.90
21439;DHT22;10880;50.302;18.736;2023-11-21T08:20:29;12.40;75.90
21439;DHT22;10880;50.302;18.736;2023-11-21T08:22:57;12.50;76.00
21439;DHT22;10880;50.302;18.736;2023-11-21T08:27:50;12.50;76.10
21439;DHT22;10880;50.302;18.736;2023-11-21T08:30:17;12.50;76.10
21439;DHT22;10880;50.302;18.736;2023-11-21T08:37:43;12.50;76.10
21439;DHT22;10880;50.302;18.736;2023-11-21T08:40:11;12.50;76.20
21439;DHT22;10880;50.302;18.736;2023-11-21T08:45:11;12.50;76.40
21439;DHT22;10880;50.302;18.736;2023-11-21T08:47:39;12.50;77.10
21439;DHT22;10880;50.302;18.736;2023-11-21T08:50:07;12.50;77.00
21439;DHT22;10880;50.302;18.736;2023-11-21T08:52:34;12.60;77.30
21439;DHT22;10880;50.302;18.736;2023-11-21T08:55:01;12.60;77.10
21439;DHT22;10880;50.302;18.736;2023-11-21T08:57:37;12.60;77.10
21439;DHT22;10880;50.302;18.736;2023-11-21T09:00:05;12.60;76.60
21439;DHT22;10880;50.302;18.736;2023-11-21T09:05:04;12.70;76.50
21439;DHT22;10880;50.302;18.736;2023-11-21T09:09:58;12.70;76.50
21439;DHT22;10880;50.302;18.736;2023-11-21T09:12:25;12.70;77.10
21439;DHT22;10880;50.302;18.736;2023-11-21T09:17:18;12.70;76.50
21439;DHT22;10880;50.302;18.736;2023-11-21T09:19:45;12.80;76.50
21439;DHT22;10880;50.302;18.736;2023-11-21T09:22:17;12.80;77.10
21439;DHT22;10880;50.302;18.736;2023-11-21T09:24:44;12.80;77.10
21439;DHT22;10880;50.302;18.736;2023-11-21T09:32:05;12.90;76.70
21439;DHT22;10880;50.302;18.736;2023-11-21T09:37:05;13.00;77.00
21439;DHT22;10880;50.302;18.736;2023-11-21T09:39:33;12.90;77.60
21439;DHT22;10880;50.302;18.736;2023-11-21T09:42:23;13.00;77.60
21439;DHT22;10880;50.302;18.736;2023-11-21T09:47:39;13.10;76.60
21439;DHT22;10880;50.302;18.736;2023-11-21T09:50:06;12.70;76.30
21439;DHT22;10880;50.302;18.736;2023-11-21T09:53:13;13.10;76.10
21439;DHT22;10880;50.302;18.736;2023-11-21T09:55:46;13.10;75.90
21439;DHT22;10880;50.302;18.736;2023-11-21T09:58:14;13.10;76.60
21439;DHT22;10880;50.302;18.736;2023-11-21T10:00:45;13.00;75.70
21439;DHT22;10880;50.302;18.736;2023-11-21T10:03:15;13.00;75.50
21439;DHT22;10880;50.302;18.736;2023-11-21T10:05:44;13.00;75.40
21439;DHT22;10880;50.302;18.736;2023-11-21T10:10:46;12.90;75.20
21439;DHT22;10880;50.302;18.736;2023-11-21T10:15:43;12.90;75.10
21439;DHT22;10880;50.302;18.736;2023-11-21T10:18:15;12.80;75.10
21439;DHT22;10880;50.302;18.736;2023-11-21T10:20:44;12.80;75.20
21439;DHT22;10880;50.302;18.736;2023-11-21T10:23:22;12.80;75.20
21439;DHT22;10880;50.302;18.736;2023-11-21T10:25:54;12.80;75.30
21439;DHT22;10880;50.302;18.736;2023-11-21T10:28:21;12.80;76.00
21439;DHT22;10880;50.302;18.736;2023-11-21T10:35:49;12.80;75.60
21439;DHT22;10880;50.302;18.736;2023-11-21T10:38:21;12.80;75.60
21439;DHT22;10880;50.302;18.736;2023-11-21T10:40:51;12.80;75.60
21439;DHT22;10880;50.302;18.736;2023-11-21T10:43:25;12.80;75.60
21439;DHT22;10880;50.302;18.736;2023-11-21T10:48:20;12.90;75.60
21439;DHT22;10880;50.302;18.736;2023-11-21T10:50:48;12.90;75.50
21439;DHT22;10880;50.302;18.736;2023-11-21T10:53:15;12.90;76.00
21439;DHT22;10880;50.302;18.736;2023-11-21T10:58:10;12.90;75.30
21439;DHT22;10880;50.302;18.736;2023-11-21T11:03:13;12.90;75.30
21439;DHT22;10880;50.302;18.736;2023-11-21T11:05:41;12.90;75.30
21439;DHT22;10880;50.302;18.736;2023-11-21T11:08:12;13.00;75.40
21439;DHT22;10880;50.302;18.736;2023-11-21T11:13:07;13.00;75.50
21439;DHT22;10880;50.302;18.736;2023-11-21T11:18:01;13.10;75.50
21439;DHT22;10880;50.302;18.736;2023-11-21T11:20:35;13.10;75.40
21439;DHT22;10880;50.302;18.736;2023-11-21T11:25:58;13.20;75.40
21439;DHT22;10880;50.302;18.736;2023-11-21T11:33:51;13.20;75.10
21439;DHT22;10880;50.302;18.736;2023-11-21T11:36:47;13.20;75.10
21439;DHT22;10880;50.302;18.736;2023-11-21T11:39:32;13.30;75.70
21439;DHT22;10880;50.302;18.736;2023-11-21T11:42:07;13.30;74.70
21439;DHT22;10880;50.302;18.736;2023-11-21T11:50:02;13.30;75.20
21439;DHT22;10880;50.302;18.736;2023-11-21T11:52:38;13.30;75.20
21439;DHT22;10880;50.302;18.736;2023-11-21T11:55:09;13.30;74.40
21439;DHT22;10880;50.302;18.736;2023-11-21T11:57:42;13.20;74.30
21439;DHT22;10880;50.302;18.736;2023-11-21T12:00:37;13.20;74.20
21439;DHT22;10880;50.302;18.736;2023-11-21T12:03:06;13.20;74.10
21439;DHT22;10880;50.302;18.736;2023-11-21T12:05:34;13.20;74.10
21439;DHT22;10880;50.302;18.736;2023-11-21T12:08:07;13.20;74.00
21439;DHT22;10880;50.302;18.736;2023-11-21T12:10:36;13.20;74.70
21439;DHT22;10880;50.302;18.736;2023-11-21T12:13:10;13.20;73.90
21439;DHT22;10880;50.302;18.736;2023-11-21T12:15:39;13.20;74.00
21439;DHT22;10880;50.302;18.736;2023-11-21T12:20:36;13.20;73.90
21439;DHT22;10880;50.302;18.736;2023-11-21T12:25:37;13.10;73.80
21439;DHT22;10880;50.302;18.736;2023-11-21T12:30:34;13.10;73.60
21439;DHT22;10880;50.302;18.736;2023-11-21T12:35:35;13.00;73.60
21439;DHT22;10880;50.302;18.736;2023-11-21T12:38:05;13.00;73.70
21439;DHT22;10880;50.302;18.736;2023-11-21T12:43:01;13.00;73.70
21439;DHT22;10880;50.302;18.736;2023-11-21T12:45:30;12.90;73.70
21439;DHT22;10880;50.302;18.736;2023-11-21T12:48:03;12.90;73.80
21439;DHT22;10880;50.302;18.736;2023-11-21T12:50:35;12.90;74.50
21439;DHT22;10880;50.302;18.736;2023-11-21T12:53:07;12.90;73.90
21439;DHT22;10880;50.302;18.736;2023-11-21T12:55:39;12.90;74.10
21439;DHT22;10880;50.302;18.736;2023-11-21T12:58:07;12.90;74.20
21439;DHT22;10880;50.302;18.736;2023-11-21T13:00:40;12.90;74.20
21439;DHT22;10880;50.302;18.736;2023-11-21T13:03:11;12.90;75.70
21439;DHT22;10880;50.302;18.736;2023-11-21T13:05:40;12.90;74.30
21439;DHT22;10880;50.302;18.736;2023-11-21T13:08:12;12.90;74.30
21439;DHT22;10880;50.302;18.736;2023-11-21T13:10:40;12.90;74.40
21439;DHT22;10880;50.302;18.736;2023-11-21T13:13:11;12.90;74.40
21439;DHT22;10880;50.302;18.736;2023-11-21T13:15:56;13.00;74.50
21439;DHT22;10880;50.302;18.736;2023-11-21T13:18:25;12.90;75.10
21439;DHT22;10880;50.302;18.736;2023-11-21T13:20:57;13.00;74.50
21439;DHT22;10880;50.302;18.736;2023-11-21T13:23:24;13.00;74.50
21439;DHT22;10880;50.302;18.736;2023-11-21T13:28:24;13.00;74.50
21439;DHT22;10880;50.302;18.736;2023-11-21T13:30:58;13.00;75.20
21439;DHT22;10880;50.302;18.736;2023-11-21T13:33:29;13.00;74.50
21439;DHT22;10880;50.302;18.736;2023-11-21T13:35:56;13.00;74.50
21439;DHT22;10880;50.302;18.736;2023-11-21T13:38:23;13.00;74.50
21439;DHT22;10880;50.302;18.736;2023-11-21T13:40:53;13.00;74.50
21439;DHT22;10880;50.302;18.736;2023-11-21T13:43:22;13.00;74.50
21439;DHT22;10880;50.302;18.736;2023-11-21T13:45:52;13.00;74.50
21439;DHT22;10880;50.302;18.736;2023-11-21T13:48:30;13.00;74.50
21439;DHT22;10880;50.302;18.736;2023-11-21T13:51:16;13.00;74.40
21439;DHT22;10880;50.302;18.736;2023-11-21T13:53:47;13.00;75.00
21439;DHT22;10880;50.302;18.736;2023-11-21T13:56:20;13.00;74.30
21439;DHT22;10880;50.302;18.736;2023-11-21T14:01:22;13.00;74.20
21439;DHT22;10880;50.302;18.736;2023-11-21T14:04:06;13.00;75.00
21439;DHT22;10880;50.302;18.736;2023-11-21T14:12:09;13.00;74.30
21439;DHT22;10880;50.302;18.736;2023-11-21T14:14:36;13.00;75.00
21439;DHT22;10880;50.302;18.736;2023-11-21T14:17:03;13.00;75.00
21439;DHT22;10880;50.302;18.736;2023-11-21T14:19:33;13.00;75.10
21439;DHT22;10880;50.302;18.736;2023-11-21T14:22:03;13.00;74.50
21439;DHT22;10880;50.302;18.736;2023-11-21T14:24:29;12.90;74.40
21439;DHT22;10880;50.302;18.736;2023-11-21T14:26:59;13.00;74.50
21439;DHT22;10880;50.302;18.736;2023-11-21T14:29:26;12.90;74.30
21439;DHT22;10880;50.302;18.736;2023-11-21T14:31:55;13.00;75.00
21439;DHT22;10880;50.302;18.736;2023-11-21T14:34:24;13.00;75.10
21439;DHT22;10880;50.302;18.736;2023-11-21T14:36:51;12.90;74.40
21439;DHT22;10880;50.302;18.736;2023-11-21T14:39:17;13.00;75.20
21439;DHT22;10880;50.302;18.736;2023-11-21T14:41:53;12.90;74.50
21439;DHT22;10880;50.302;18.736;2023-11-21T14:44:22;12.90;74.40
21439;DHT22;10880;50.302;18.736;2023-11-21T14:46:54;13.00;75.10
21439;DHT22;10880;50.302;18.736;2023-11-21T14:51:56;12.90;74.60
21439;DHT22;10880;50.302;18.736;2023-11-21T14:54:50;12.90;75.10
21439;DHT22;10880;50.302;18.736;2023-11-21T14:57:26;12.90;75.10
21439;DHT22;10880;50.302;18.736;2023-11-21T15:02:24;12.90;74.60
21439;DHT22;10880;50.302;18.736;2023-11-21T15:05:15;12.90;75.20
21439;DHT22;10880;50.302;18.736;2023-11-21T15:07:42;12.80;74.60
21439;DHT22;10880;50.302;18.736;2023-11-21T15:15:09;12.80;74.60
21439;DHT22;10880;50.302;18.736;2023-11-21T15:22:42;12.80;74.70
21439;DHT22;10880;50.302;18.736;2023-11-21T15:30:05;12.70;74.70
21439;DHT22;10880;50.302;18.736;2023-11-21T15:32:32;12.70;74.70
21439;DHT22;10880;50.302;18.736;2023-11-21T15:34:58;12.70;75.30
21439;DHT22;10880;50.302;18.736;2023-11-21T15:37:25;12.70;75.30
21439;DHT22;10880;50.302;18.736;2023-11-21T15:39:53;12.70;74.80
21439;DHT22;10880;50.302;18.736;2023-11-21T15:42:20;12.70;75.50
21439;DHT22;10880;50.302;18.736;2023-11-21T15:44:47;12.70;75.40
21439;DHT22;10880;50.302;18.736;2023-11-21T15:47:15;12.70;75.40
21439;DHT22;10880;50.302;18.736;2023-11-21T15:49:42;12.70;75.50
21439;DHT22;10880;50.302;18.736;2023-11-21T15:52:09;12.70;74.80
21439;DHT22;10880;50.302;18.736;2023-11-21T15:54:37;12.70;74.80
21439;DHT22;10880;50.302;18.736;2023-11-21T15:57:05;12.70;75.50
21439;DHT22;10880;50.302;18.736;2023-11-21T16:02:03;12.70;74.90
21439;DHT22;10880;50.302;18.736;2023-11-21T16:04:34;12.60;74.80
21439;DHT22;10880;50.302;18.736;2023-11-21T16:07:04;12.60;74.80
21439;DHT22;10880;50.302;18.736;2023-11-21T16:09:34;12.60;74.70
21439;DHT22;10880;50.302;18.736;2023-11-21T16:12:05;12.50;74.70
21439;DHT22;10880;50.302;18.736;2023-11-21T16:14:34;12.50;74.80
21439;DHT22;10880;50.302;18.736;2023-11-21T16:17:04;12.50;74.70
21439;DHT22;10880;50.302;18.736;2023-11-21T16:19:35;12.50;75.30
21439;DHT22;10880;50.302;18.736;2023-11-21T16:22:01;12.40;75.30
21439;DHT22;10880;50.302;18.736;2023-11-21T16:29:24;12.30;74.70
21439;DHT22;10880;50.302;18.736;2023-11-21T16:31:51;12.30;74.80
21439;DHT22;10880;50.302;18.736;2023-11-21T16:34:19;12.30;74.80
21439;DHT22;10880;50.302;18.736;2023-11-21T16:36:46;12.20;74.80
21439;DHT22;10880;50.302;18.736;2023-11-21T16:39:12;12.20;75.30
21439;DHT22;10880;50.302;18.736;2023-11-21T16:41:41;12.20;75.40
21439;DHT22;10880;50.302;18.736;2023-11-21T16:44:16;12.10;74.70
21439;DHT22;10880;50.302;18.736;2023-11-21T16:46:50;12.10;74.90
21439;DHT22;10880;50.302;18.736;2023-11-21T16:49:23;12.00;74.70
21439;DHT22;10880;50.302;18.736;2023-11-21T16:56:55;11.90;74.60
21439;DHT22;10880;50.302;18.736;2023-11-21T17:01:49;11.80;74.50
21439;DHT22;10880;50.302;18.736;2023-11-21T17:06:46;11.80;74.60
21439;DHT22;10880;50.302;18.736;2023-11-21T17:11:50;11.70;74.50
21439;DHT22;10880;50.302;18.736;2023-11-21T17:16:46;11.60;74.40
21439;DHT22;10880;50.302;18.736;2023-11-21T17:19:15;11.60;75.00
21439;DHT22;10880;50.302;18.736;2023-11-21T17:24:08;11.50;74.40
21439;DHT22;10880;50.302;18.736;2023-11-21T17:26:35;11.50;74.40
21439;DHT22;10880;50.302;18.736;2023-11-21T17:29:02;11.40;74.30
21439;DHT22;10880;50.302;18.736;2023-11-21T17:31:29;11.40;74.30
21439;DHT22;10880;50.302;18.736;2023-11-21T17:33:56;11.40;74.90
21439;DHT22;10880;50.302;18.736;2023-11-21T17:41:23;11.30;74.10
21439;DHT22;10880;50.302;18.736;2023-11-21T17:46:21;11.20;73.80
21439;DHT22;10880;50.302;18.736;2023-11-21T17:48:49;11.10;73.60
21439;DHT22;10880;50.302;18.736;2023-11-21T17:53:45;11.00;73.70
21439;DHT22;10880;50.302;18.736;2023-11-21T17:56:16;11.00;73.50
21439;DHT22;10880;50.302;18.736;2023-11-21T17:58:43;11.00;74.30
21439;DHT22;10880;50.302;18.736;2023-11-21T18:03:39;10.80;73.50
21439;DHT22;10880;50.302;18.736;2023-11-21T18:06:11;10.80;73.50
21439;DHT22;10880;50.302;18.736;2023-11-21T18:08:39;10.80;73.40
21439;DHT22;10880;50.302;18.736;2023-11-21T18:11:10;10.70;73.30
21439;DHT22;10880;50.302;18.736;2023-11-21T18:13:36;10.60;73.20
21439;DHT22;10880;50.302;18.736;2023-11-21T18:16:03;10.60;73.20
21439;DHT22;10880;50.302;18.736;2023-11-21T18:20:57;10.50;73.00
21439;DHT22;10880;50.302;18.736;2023-11-21T18:23:25;10.50;73.00
21439;DHT22;10880;50.302;18.736;2023-11-21T18:25:53;10.40;72.80
21439;DHT22;10880;50.302;18.736;2023-11-21T18:28:20;10.40;72.80
21439;DHT22;10880;50.302;18.736;2023-11-21T18:30:48;10.30;72.70
21439;DHT22;10880;50.302;18.736;2023-11-21T18:35:46;10.30;72.30
21439;DHT22;10880;50.302;18.736;2023-11-21T18:38:13;10.20;72.30
21439;DHT22;10880;50.302;18.736;2023-11-21T18:40:39;10.10;72.20
21439;DHT22;10880;50.302;18.736;2023-11-21T18:43:06;10.10;72.80
21439;DHT22;10880;50.302;18.736;2023-11-21T18:45:33;10.00;72.20
21439;DHT22;10880;50.302;18.736;2023-11-21T18:48:00;10.00;73.00
21439;DHT22;10880;50.302;18.736;2023-11-21T18:57:49;9.80;72.20
21439;DHT22;10880;50.302;18.736;2023-11-21T19:02:52;9.80;72.10
21439;DHT22;10880;50.302;18.736;2023-11-21T19:05:18;9.70;72.00
21439;DHT22;10880;50.302;18.736;2023-11-21T19:07:47;9.70;72.10
21439;DHT22;10880;50.302;18.736;2023-11-21T19:10:13;9.60;71.80
21439;DHT22;10880;50.302;18.736;2023-11-21T19:12:40;9.60;71.80
21439;DHT22;10880;50.302;18.736;2023-11-21T19:15:08;9.60;72.40
21439;DHT22;10880;50.302;18.736;2023-11-21T19:20:08;9.50;71.80
21439;DHT22;10880;50.302;18.736;2023-11-21T19:25:05;9.40;71.80
21439;DHT22;10880;50.302;18.736;2023-11-21T19:29:58;9.30;71.90
21439;DHT22;10880;50.302;18.736;2023-11-21T19:32:26;9.20;71.70
21439;DHT22;10880;50.302;18.736;2023-11-21T19:39:51;9.10;71.50
21439;DHT22;10880;50.302;18.736;2023-11-21T19:44:48;9.00;71.40
21439;DHT22;10880;50.302;18.736;2023-11-21T19:47:17;8.90;71.50
21439;DHT22;10880;50.302;18.736;2023-11-21T19:52:18;8.90;71.40
21439;DHT22;10880;50.302;18.736;2023-11-21T19:54:44;8.80;71.50
21439;DHT22;10880;50.302;18.736;2023-11-21T19:57:12;8.80;71.60
21439;DHT22;10880;50.302;18.736;2023-11-21T19:59:41;8.80;71.70
21439;DHT22;10880;50.302;18.736;2023-11-21T20:02:12;8.80;72.30
21439;DHT22;10880;50.302;18.736;2023-11-21T20:04:39;8.70;71.60
21439;DHT22;10880;50.302;18.736;2023-11-21T20:07:14;8.70;71.60
21439;DHT22;10880;50.302;18.736;2023-11-21T20:12:12;8.60;71.60
21439;DHT22;10880;50.302;18.736;2023-11-21T20:17:14;8.60;71.40
21439;DHT22;10880;50.302;18.736;2023-11-21T20:22:14;8.50;71.40
21439;DHT22;10880;50.302;18.736;2023-11-21T20:27:20;8.40;71.40
21439;DHT22;10880;50.302;18.736;2023-11-21T20:29:54;8.40;71.40
21439;DHT22;10880;50.302;18.736;2023-11-21T20:42:15;8.30;71.40
21439;DHT22;10880;50.302;18.736;2023-11-21T20:44:42;9.80;72.40
21439;DHT22;10880;50.302;18.736;2023-11-21T20:49:40;8.20;71.50
21439;DHT22;10880;50.302;18.736;2023-11-21T20:52:08;8.20;71.40
21439;DHT22;10880;50.302;18.736;2023-11-21T20:54:38;8.20;71.40
21439;DHT22;10880;50.302;18.736;2023-11-21T20:57:06;8.20;72.00
21439;DHT22;10880;50.302;18.736;2023-11-21T20:59:37;8.10;71.30
21439;DHT22;10880;50.302;18.736;2023-11-21T21:02:04;8.10;71.20
21439;DHT22;10880;50.302;18.736;2023-11-21T21:07:17;8.00;71.00
21439;DHT22;10880;50.302;18.736;2023-11-21T21:09:43;8.00;71.70
21439;DHT22;10880;50.302;18.736;2023-11-21T21:19:35;7.80;70.80
21439;DHT22;10880;50.302;18.736;2023-11-21T21:26:57;7.70;70.90
21439;DHT22;10880;50.302;18.736;2023-11-21T21:31:57;7.60;70.90
21439;DHT22;10880;50.302;18.736;2023-11-21T21:36:51;7.60;70.90
21439;DHT22;10880;50.302;18.736;2023-11-21T21:39:18;7.50;70.70
21439;DHT22;10880;50.302;18.736;2023-11-21T21:46:46;7.40;70.50
21439;DHT22;10880;50.302;18.736;2023-11-21T21:51:44;7.30;70.50
21439;DHT22;10880;50.302;18.736;2023-11-21T21:54:10;7.30;70.70
21439;DHT22;10880;50.302;18.736;2023-11-21T21:59:07;7.20;70.60